createdAt,value
2018-07-31T00:00:25.590Z,21.50
2018-07-31T00:03:29.089Z,21.50
2018-07-31T00:06:32.444Z,21.40
2018-07-31T00:09:35.822Z,21.30
2018-07-31T00:12:39.187Z,21.40
2018-07-31T00:15:42.565Z,21.30
2018-07-31T00:18:45.983Z,21.30
2018-07-31T00:21:49.344Z,21.30
2018-07-31T00:24:52.692Z,21.30
2018-07-31T00:27:56.067Z,21.20
2018-07-31T00:30:59.437Z,21.20
2018-07-31T00:34:02.792Z,21.20
2018-07-31T00:37:06.191Z,21.10
2018-07-31T00:40:09.524Z,21.20
2018-07-31T00:43:12.892Z,21.20
2018-07-31T00:46:16.300Z,21.10
2018-07-31T00:49:19.688Z,21.10
2018-07-31T00:52:23.149Z,21.10
2018-07-31T00:55:26.536Z,21.00
2018-07-31T01:01:32.999Z,21.00
2018-07-31T01:04:36.376Z,21.00
2018-07-31T01:07:39.763Z,20.90
2018-07-31T01:10:43.130Z,20.90
2018-07-31T01:13:46.496Z,21.00
2018-07-31T01:16:49.888Z,20.90
2018-07-31T01:19:54.092Z,20.80
2018-07-31T01:22:59.060Z,20.80
2018-07-31T01:26:02.741Z,20.80
2018-07-31T01:29:06.151Z,20.70
2018-07-31T01:32:09.532Z,20.70
2018-07-31T01:35:12.921Z,20.60
2018-07-31T01:38:16.289Z,20.70
2018-07-31T01:41:19.632Z,20.60
2018-07-31T01:44:22.996Z,20.50
2018-07-31T01:47:26.383Z,20.50
2018-07-31T01:50:29.741Z,20.50
2018-07-31T01:53:33.095Z,20.50
2018-07-31T01:56:36.515Z,20.40
2018-07-31T01:59:39.904Z,20.40
2018-07-31T02:02:44.862Z,20.30
2018-07-31T02:05:48.236Z,20.30
2018-07-31T02:08:51.576Z,20.20
2018-07-31T02:11:54.948Z,20.20
2018-07-31T02:14:58.291Z,20.10
2018-07-31T02:18:01.636Z,20.10
2018-07-31T02:21:05.000Z,20.00
2018-07-31T02:24:08.359Z,20.00
2018-07-31T02:27:11.784Z,20.00
2018-07-31T02:30:22.267Z,19.90
2018-07-31T02:33:25.651Z,19.90
2018-07-31T02:36:28.988Z,19.90
2018-07-31T02:39:32.343Z,19.90
2018-07-31T02:42:35.733Z,19.80
2018-07-31T02:45:39.100Z,19.80
2018-07-31T02:48:42.480Z,19.80
2018-07-31T02:51:45.821Z,19.80
2018-07-31T02:54:49.220Z,19.90
2018-07-31T02:57:52.667Z,19.90
2018-07-31T03:00:56.012Z,19.90
2018-07-31T03:03:59.377Z,19.90
2018-07-31T03:07:02.721Z,19.80
2018-07-31T03:10:07.235Z,19.80
2018-07-31T03:13:10.560Z,19.70
2018-07-31T03:16:13.963Z,19.60
2018-07-31T03:19:17.297Z,19.60
2018-07-31T03:22:20.657Z,19.60
2018-07-31T03:25:23.998Z,19.60
2018-07-31T03:28:27.332Z,19.50
2018-07-31T03:31:30.680Z,19.50
2018-07-31T03:34:34.008Z,19.40
2018-07-31T03:37:37.361Z,19.40
2018-07-31T03:40:40.718Z,19.40
2018-07-31T03:43:44.044Z,19.30
2018-07-31T03:46:47.389Z,19.30
2018-07-31T03:49:50.702Z,19.30
2018-07-31T03:52:54.050Z,19.30
2018-07-31T03:55:57.396Z,19.20
2018-07-31T03:59:00.728Z,19.20
2018-07-31T04:02:04.099Z,19.10
2018-07-31T04:05:07.439Z,19.10
2018-07-31T04:08:10.832Z,19.10
2018-07-31T04:11:14.208Z,19.10
2018-07-31T04:14:17.547Z,19.10
2018-07-31T04:17:20.905Z,19.20
2018-07-31T04:20:24.619Z,19.20
2018-07-31T04:23:27.958Z,19.20
2018-07-31T04:26:31.338Z,19.20
2018-07-31T04:29:34.672Z,19.20
2018-07-31T04:32:38.049Z,19.30
2018-07-31T04:35:41.448Z,19.30
2018-07-31T04:38:44.846Z,19.30
2018-07-31T04:41:48.224Z,19.30
2018-07-31T04:44:51.596Z,19.40
2018-07-31T04:47:54.955Z,19.40
2018-07-31T04:50:58.340Z,19.40
2018-07-31T04:54:02.095Z,19.50
2018-07-31T04:57:05.539Z,19.60
2018-07-31T05:00:09.510Z,19.60
2018-07-31T05:03:12.927Z,19.60
2018-07-31T05:06:16.285Z,19.70
2018-07-31T05:09:19.633Z,19.80
2018-07-31T05:12:22.979Z,19.80
2018-07-31T05:15:26.320Z,20.00
2018-07-31T05:18:29.681Z,20.10
2018-07-31T05:21:33.211Z,20.10
2018-07-31T05:24:36.545Z,20.20
2018-07-31T05:27:39.883Z,20.30
2018-07-31T05:30:43.215Z,20.40
2018-07-31T05:33:46.567Z,20.50
2018-07-31T05:36:49.912Z,20.70
2018-07-31T05:39:53.569Z,20.80
2018-07-31T05:42:56.911Z,20.90
2018-07-31T05:46:00.504Z,21.00
2018-07-31T05:49:04.419Z,21.10
2018-07-31T05:52:07.780Z,21.20
2018-07-31T05:55:11.110Z,21.40
2018-07-31T05:58:14.548Z,21.50
2018-07-31T06:01:17.923Z,21.60
2018-07-31T06:04:21.388Z,21.70
2018-07-31T06:07:24.769Z,21.90
2018-07-31T06:10:28.247Z,22.00
2018-07-31T06:13:31.663Z,22.20
2018-07-31T06:16:35.012Z,22.40
2018-07-31T06:19:38.368Z,22.50
2018-07-31T06:22:41.776Z,22.70
2018-07-31T06:25:45.130Z,22.90
2018-07-31T06:28:48.484Z,23.10
2018-07-31T06:31:51.840Z,23.30
2018-07-31T06:34:55.193Z,23.50
2018-07-31T06:37:58.653Z,23.70
2018-07-31T06:41:02.025Z,24.00
2018-07-31T06:44:05.717Z,24.30
2018-07-31T06:47:09.068Z,24.70
2018-07-31T06:50:12.472Z,25.10
2018-07-31T06:53:15.807Z,25.40
2018-07-31T06:56:19.255Z,25.70
2018-07-31T06:59:22.757Z,26.00
2018-07-31T07:02:26.112Z,26.20
2018-07-31T07:05:29.472Z,26.50
2018-07-31T07:08:32.823Z,26.80
2018-07-31T07:11:36.160Z,26.90
2018-07-31T07:14:39.521Z,27.20
2018-07-31T07:17:42.861Z,27.40
2018-07-31T07:20:46.212Z,27.60
2018-07-31T07:23:49.569Z,27.80
2018-07-31T07:26:52.904Z,28.10
2018-07-31T07:29:56.253Z,28.30
2018-07-31T07:32:59.624Z,28.50
2018-07-31T07:36:03.013Z,28.70
2018-07-31T07:39:09.560Z,28.80
2018-07-31T07:42:12.897Z,29.00
2018-07-31T07:45:16.352Z,29.10
2018-07-31T07:48:19.729Z,29.20
2018-07-31T07:51:23.077Z,29.20
2018-07-31T07:54:26.441Z,29.30
2018-07-31T07:57:29.781Z,29.30
2018-07-31T08:00:33.132Z,29.40
2018-07-31T08:03:36.489Z,29.50
2018-07-31T08:09:42.953Z,29.70
2018-07-31T08:12:46.336Z,29.80
2018-07-31T08:15:49.740Z,29.90
2018-07-31T08:18:53.133Z,30.00
2018-07-31T08:21:56.498Z,30.00
2018-07-31T08:24:59.861Z,30.00
2018-07-31T08:28:03.208Z,30.00
2018-07-31T08:31:06.635Z,30.20
2018-07-31T08:34:10.000Z,30.30
2018-07-31T08:37:13.386Z,30.50
2018-07-31T08:40:16.767Z,30.60
2018-07-31T08:43:20.117Z,30.60
2018-07-31T08:46:23.580Z,30.60
2018-07-31T08:49:26.920Z,30.80
2018-07-31T08:52:30.300Z,30.80
2018-07-31T08:55:33.677Z,30.90
2018-07-31T08:58:37.071Z,31.10
2018-07-31T09:01:40.417Z,31.20
2018-07-31T09:04:43.874Z,31.30
2018-07-31T09:07:47.217Z,31.30
2018-07-31T09:10:50.618Z,31.40
2018-07-31T09:13:53.937Z,31.50
2018-07-31T09:16:57.369Z,31.60
2018-07-31T09:20:00.696Z,31.70
2018-07-31T09:23:04.072Z,31.70
2018-07-31T09:26:07.501Z,31.80
2018-07-31T09:29:10.808Z,32.00
2018-07-31T09:32:14.161Z,32.10
2018-07-31T09:35:17.480Z,32.20
2018-07-31T09:38:20.813Z,32.30
2018-07-31T09:41:24.154Z,32.40
2018-07-31T09:44:27.456Z,32.40
2018-07-31T09:47:30.779Z,32.60
2018-07-31T09:50:34.135Z,32.70
2018-07-31T09:53:37.423Z,32.80
2018-07-31T09:56:40.748Z,32.80
2018-07-31T09:59:44.076Z,32.90
2018-07-31T10:02:47.684Z,33.10
2018-07-31T10:05:51.000Z,33.10
2018-07-31T10:08:54.320Z,33.20
2018-07-31T10:11:57.697Z,33.20
2018-07-31T10:15:01.016Z,33.30
2018-07-31T10:18:04.434Z,33.40
2018-07-31T10:21:08.028Z,33.40
2018-07-31T10:24:11.386Z,33.50
2018-07-31T10:27:14.736Z,33.60
2018-07-31T10:30:18.092Z,33.80
2018-07-31T10:33:21.443Z,33.80
2018-07-31T10:36:24.763Z,34.00
2018-07-31T10:39:28.119Z,34.10
2018-07-31T10:45:34.497Z,34.00
2018-07-31T10:48:37.920Z,34.10
2018-07-31T10:51:41.458Z,34.10
2018-07-31T10:54:44.786Z,34.30
2018-07-31T10:57:48.151Z,34.50
2018-07-31T11:00:51.455Z,34.50
2018-07-31T11:03:54.868Z,34.60
2018-07-31T11:06:58.129Z,34.60
2018-07-31T11:10:01.474Z,34.80
2018-07-31T11:13:04.868Z,34.80
2018-07-31T11:16:08.204Z,34.80
2018-07-31T11:19:11.568Z,34.80
2018-07-31T11:22:14.920Z,34.70
2018-07-31T11:25:18.272Z,34.80
2018-07-31T11:28:21.633Z,35.00
2018-07-31T11:31:24.998Z,35.10
2018-07-31T11:34:28.342Z,35.10
2018-07-31T11:37:31.668Z,35.20
2018-07-31T11:40:35.004Z,35.00
2018-07-31T11:43:38.360Z,35.00
2018-07-31T11:46:41.699Z,35.00
2018-07-31T11:49:45.104Z,35.00
2018-07-31T11:52:48.432Z,35.10
2018-07-31T11:55:51.830Z,35.20
2018-07-31T11:58:55.135Z,35.20
2018-07-31T12:01:58.460Z,35.20
2018-07-31T12:05:01.812Z,35.20
2018-07-31T12:08:05.168Z,35.20
2018-07-31T12:11:08.561Z,34.80
2018-07-31T12:14:12.022Z,34.30
2018-07-31T12:17:15.347Z,34.10
2018-07-31T12:20:18.687Z,34.30
2018-07-31T12:23:22.014Z,34.50
2018-07-31T12:26:25.400Z,34.70
2018-07-31T12:29:28.844Z,34.90
2018-07-31T12:32:32.192Z,35.00
2018-07-31T12:35:35.585Z,35.00
2018-07-31T12:38:38.946Z,35.10
2018-07-31T12:41:42.300Z,35.00
2018-07-31T12:44:45.656Z,35.10
2018-07-31T12:47:48.992Z,35.30
2018-07-31T12:50:52.565Z,35.30
2018-07-31T12:53:55.966Z,35.40
2018-07-31T12:56:59.331Z,35.40
2018-07-31T13:00:02.749Z,35.50
2018-07-31T13:03:06.474Z,35.50
2018-07-31T13:06:09.845Z,35.60
2018-07-31T13:09:13.182Z,35.60
2018-07-31T13:12:16.567Z,35.60
2018-07-31T13:15:19.919Z,35.70
2018-07-31T13:18:23.512Z,35.70
2018-07-31T13:21:26.900Z,35.70
2018-07-31T13:24:30.248Z,35.60
2018-07-31T13:27:33.620Z,35.40
2018-07-31T13:30:37.021Z,35.50
2018-07-31T13:33:40.332Z,35.60
2018-07-31T13:36:43.692Z,35.40
2018-07-31T13:39:47.008Z,35.40
2018-07-31T13:42:50.388Z,35.40
2018-07-31T13:45:53.796Z,35.60
2018-07-31T13:48:57.123Z,35.60
2018-07-31T13:52:00.465Z,35.70
2018-07-31T13:55:03.915Z,35.70
2018-07-31T13:58:07.260Z,35.80
2018-07-31T14:01:10.596Z,35.70
2018-07-31T14:04:14.205Z,35.80
2018-07-31T14:07:17.593Z,35.80
2018-07-31T14:10:20.961Z,35.80
2018-07-31T14:13:24.288Z,35.80
2018-07-31T14:16:27.750Z,36.00
2018-07-31T14:19:31.073Z,36.00
2018-07-31T14:22:34.424Z,36.20
2018-07-31T14:25:37.764Z,36.20
2018-07-31T14:28:41.128Z,35.90
2018-07-31T14:31:44.675Z,35.90
2018-07-31T14:34:47.992Z,35.70
2018-07-31T14:37:51.427Z,35.90
2018-07-31T14:40:54.754Z,35.90
2018-07-31T14:43:58.103Z,35.90
2018-07-31T14:47:01.436Z,35.90
2018-07-31T14:50:05.308Z,36.00
2018-07-31T14:53:08.800Z,36.00
2018-07-31T14:56:12.149Z,36.10
2018-07-31T14:59:15.803Z,36.10
2018-07-31T15:02:19.151Z,36.10
2018-07-31T15:05:22.471Z,36.20
2018-07-31T15:08:25.807Z,36.20
2018-07-31T15:11:29.131Z,36.20
2018-07-31T15:14:32.474Z,36.10
2018-07-31T15:17:35.820Z,36.00
2018-07-31T15:20:39.145Z,35.90
2018-07-31T15:23:42.494Z,35.80
2018-07-31T15:26:45.844Z,35.90
2018-07-31T15:29:49.180Z,35.90
2018-07-31T15:32:52.544Z,36.00
2018-07-31T15:35:56.283Z,35.90
2018-07-31T15:38:59.626Z,35.80
2018-07-31T15:45:06.104Z,35.70
2018-07-31T15:48:09.507Z,35.60
2018-07-31T15:51:12.800Z,35.60
2018-07-31T15:54:17.008Z,35.60
2018-07-31T15:57:20.336Z,35.50
2018-07-31T16:00:23.758Z,35.50
2018-07-31T16:03:27.120Z,35.40
2018-07-31T16:06:30.617Z,35.30
2018-07-31T16:09:33.939Z,35.30
2018-07-31T16:12:37.305Z,35.10
2018-07-31T16:15:40.671Z,35.00
2018-07-31T16:18:44.017Z,35.00
2018-07-31T16:21:47.348Z,34.80
2018-07-31T16:24:50.740Z,34.80
2018-07-31T16:27:54.232Z,34.70
2018-07-31T16:30:57.600Z,34.70
2018-07-31T16:34:00.996Z,34.50
2018-07-31T16:37:04.368Z,34.40
2018-07-31T16:40:07.772Z,34.20
2018-07-31T16:43:11.129Z,34.10
2018-07-31T16:46:14.471Z,34.00
2018-07-31T16:49:17.927Z,33.90
2018-07-31T16:52:21.288Z,33.70
2018-07-31T16:55:24.647Z,33.60
2018-07-31T16:58:28.012Z,33.50
2018-07-31T17:01:31.355Z,33.40
2018-07-31T17:04:34.822Z,33.20
2018-07-31T17:07:38.205Z,33.20
2018-07-31T17:10:41.604Z,33.10
2018-07-31T17:13:44.952Z,33.00
2018-07-31T17:16:48.423Z,32.90
2018-07-31T17:19:51.808Z,32.90
2018-07-31T17:22:55.151Z,32.80
2018-07-31T17:25:58.516Z,32.60
2018-07-31T17:29:01.926Z,32.60
2018-07-31T17:32:05.419Z,32.50
2018-07-31T17:35:08.796Z,32.40
2018-07-31T17:38:12.151Z,32.20
2018-07-31T17:41:15.539Z,32.10
2018-07-31T17:44:18.944Z,32.00
2018-07-31T17:47:22.260Z,31.80
2018-07-31T17:50:25.669Z,31.80
2018-07-31T17:53:29.052Z,31.80
2018-07-31T17:56:32.652Z,31.70
2018-07-31T17:59:36.104Z,31.80
2018-07-31T18:02:39.474Z,31.70
2018-07-31T18:05:43.017Z,31.70
2018-07-31T18:08:46.392Z,31.60
2018-07-31T18:11:49.815Z,31.60
2018-07-31T18:14:53.154Z,31.50
2018-07-31T18:17:56.520Z,31.50
2018-07-31T18:21:00.014Z,31.40
2018-07-31T18:24:03.523Z,31.30
2018-07-31T18:27:07.005Z,31.20
2018-07-31T18:30:10.324Z,31.20
2018-07-31T18:33:13.679Z,31.20
2018-07-31T18:36:17.038Z,31.10
2018-07-31T18:39:20.396Z,31.10
2018-07-31T18:42:24.771Z,31.00
2018-07-31T18:45:28.174Z,31.00
2018-07-31T18:48:31.508Z,30.90
2018-07-31T18:51:34.892Z,30.80
2018-07-31T18:54:38.237Z,30.60
2018-07-31T18:57:41.626Z,30.50
2018-07-31T19:00:44.979Z,30.40
2018-07-31T19:03:48.427Z,30.20
2018-07-31T19:06:51.816Z,30.10
2018-07-31T19:12:58.268Z,29.80
2018-07-31T19:16:01.629Z,29.70
2018-07-31T19:19:05.167Z,29.50
2018-07-31T19:22:08.549Z,29.50
2018-07-31T19:25:11.896Z,29.40
2018-07-31T19:28:15.430Z,29.40
2018-07-31T19:31:18.700Z,29.40
2018-07-31T19:34:22.121Z,29.40
2018-07-31T19:37:25.593Z,29.40
2018-07-31T19:40:28.957Z,29.50
2018-07-31T19:43:32.323Z,29.50
2018-07-31T19:46:35.703Z,29.40
2018-07-31T19:49:39.054Z,29.40
2018-07-31T19:52:42.468Z,29.40
2018-07-31T19:55:45.816Z,29.50
2018-07-31T19:58:49.189Z,29.60
2018-07-31T20:01:52.569Z,29.60
2018-07-31T20:04:56.016Z,29.70
2018-07-31T20:07:59.507Z,29.60
2018-07-31T20:11:02.849Z,29.50
2018-07-31T20:14:06.227Z,29.30
2018-07-31T20:17:09.579Z,29.20
2018-07-31T20:20:12.973Z,29.10
2018-07-31T20:23:16.379Z,28.90
2018-07-31T20:26:19.760Z,28.60
2018-07-31T20:29:23.164Z,28.40
2018-07-31T20:32:26.592Z,28.30
2018-07-31T20:35:29.959Z,28.20
2018-07-31T20:38:34.402Z,28.20
2018-07-31T20:41:38.275Z,28.10
2018-07-31T20:44:41.648Z,28.10
2018-07-31T20:47:45.117Z,28.10
2018-07-31T20:50:48.448Z,28.00
2018-07-31T20:53:51.837Z,27.90
2018-07-31T20:56:55.172Z,27.70
2018-07-31T20:59:58.540Z,27.60
2018-07-31T21:03:01.926Z,27.70
2018-07-31T21:06:05.407Z,27.70
2018-07-31T21:09:10.629Z,27.70
2018-07-31T21:12:13.997Z,27.70
2018-07-31T21:15:17.423Z,27.60
2018-07-31T21:18:20.818Z,27.50
2018-07-31T21:21:24.153Z,27.40
2018-07-31T21:24:27.499Z,27.30
2018-07-31T21:27:30.902Z,27.20
2018-07-31T21:30:34.366Z,27.10
2018-07-31T21:33:37.720Z,27.00
2018-07-31T21:36:41.162Z,27.00
2018-07-31T21:39:44.820Z,26.90
2018-07-31T21:42:48.408Z,26.80
2018-07-31T21:45:51.784Z,26.70
2018-07-31T21:48:55.137Z,26.70
2018-07-31T21:51:58.480Z,26.60
2018-07-31T21:55:01.916Z,26.50
2018-07-31T21:58:05.256Z,26.40
2018-07-31T22:01:09.432Z,26.30
2018-07-31T22:04:12.780Z,26.20
2018-07-31T22:07:16.123Z,26.10
2018-07-31T22:10:19.579Z,26.10
2018-07-31T22:13:22.941Z,26.10
2018-07-31T22:16:29.263Z,26.00
2018-07-31T22:19:32.638Z,26.00
2018-07-31T22:22:35.980Z,26.00
2018-07-31T22:25:39.355Z,25.90
2018-07-31T22:28:42.725Z,25.90
2018-07-31T22:31:46.063Z,25.80
2018-07-31T22:34:49.405Z,25.80
2018-07-31T22:37:52.736Z,25.80
2018-07-31T22:40:56.084Z,25.80
2018-07-31T22:43:59.408Z,25.80
2018-07-31T22:47:02.747Z,25.80
2018-07-31T22:50:06.128Z,25.90
2018-07-31T22:53:09.453Z,25.90
2018-07-31T22:56:12.796Z,25.90
2018-07-31T22:59:16.224Z,25.80
2018-07-31T23:02:19.564Z,25.70
2018-07-31T23:05:22.924Z,25.50
2018-07-31T23:08:26.251Z,25.30
2018-07-31T23:11:29.588Z,25.10
2018-07-31T23:14:32.912Z,24.80
2018-07-31T23:17:36.258Z,24.60
2018-07-31T23:20:39.611Z,24.40
2018-07-31T23:23:42.945Z,24.20
2018-07-31T23:26:46.314Z,24.20
2018-07-31T23:29:49.660Z,24.10
2018-07-31T23:32:53.017Z,24.00
2018-07-31T23:35:56.376Z,23.90
2018-07-31T23:38:59.716Z,23.80
2018-07-31T23:42:03.066Z,23.70
2018-07-31T23:45:06.460Z,23.60
2018-07-31T23:48:09.832Z,23.50
2018-07-31T23:51:13.180Z,23.50
2018-07-31T23:54:16.515Z,23.40
2018-07-31T23:57:19.872Z,23.40
